sensor_id;sensor_type;location;lat;lon;timestamp;P1;durP1;ratioP1;P2;durP2;ratioP2
68089;SDS011;54880;50.986;6.990;2023-10-09T00:00:33;23.52;;;10.85;;
68089;SDS011;54880;50.986;6.990;2023-10-09T00:03:20;23.73;;;10.67;;
68089;SDS011;54880;50.986;6.990;2023-10-09T00:05:49;27.15;;;10.63;;
68089;SDS011;54880;50.986;6.990;2023-10-09T00:08:18;26.15;;;10.85;;
68089;SDS011;54880;50.986;6.990;2023-10-09T00:10:55;24.38;;;10.25;;
68089;SDS011;54880;50.986;6.990;2023-10-09T00:13:22;21.92;;;10.45;;
68089;SDS011;54880;50.986;6.990;2023-10-09T00:15:58;25.13;;;11.20;;
68089;SDS011;54880;50.986;6.990;2023-10-09T00:18:33;24.17;;;10.10;;
68089;SDS011;54880;50.986;6.990;2023-10-09T00:20:59;26.35;;;10.30;;
68089;SDS011;54880;50.986;6.990;2023-10-09T00:23:38;30.38;;;10.25;;
68089;SDS011;54880;50.986;6.990;2023-10-09T00:26:03;21.70;;;9.90;;
68089;SDS011;54880;50.986;6.990;2023-10-09T00:28:39;26.42;;;9.40;;
68089;SDS011;54880;50.986;6.990;2023-10-09T00:31:09;23.23;;;10.70;;
68089;SDS011;54880;50.986;6.990;2023-10-09T00:33:40;24.52;;;10.05;;
68089;SDS011;54880;50.986;6.990;2023-10-09T00:36:05;22.63;;;10.57;;
68089;SDS011;54880;50.986;6.990;2023-10-09T00:38:34;18.88;;;9.45;;
68089;SDS011;54880;50.986;6.990;2023-10-09T00:41:00;22.23;;;9.52;;
68089;SDS011;54880;50.986;6.990;2023-10-09T00:43:35;21.23;;;8.95;;
68089;SDS011;54880;50.986;6.990;2023-10-09T00:46:02;23.52;;;9.35;;
68089;SDS011;54880;50.986;6.990;2023-10-09T00:48:41;22.43;;;9.33;;
68089;SDS011;54880;50.986;6.990;2023-10-09T00:51:07;18.33;;;9.13;;
68089;SDS011;54880;50.986;6.990;2023-10-09T00:54:05;23.85;;;9.90;;
68089;SDS011;54880;50.986;6.990;2023-10-09T00:56:39;22.92;;;9.70;;
68089;SDS011;54880;50.986;6.990;2023-10-09T00:59:10;20.67;;;9.75;;
68089;SDS011;54880;50.986;6.990;2023-10-09T01:01:45;19.83;;;9.25;;
68089;SDS011;54880;50.986;6.990;2023-10-09T01:04:15;21.17;;;9.57;;
68089;SDS011;54880;50.986;6.990;2023-10-09T01:06:43;23.40;;;9.30;;
68089;SDS011;54880;50.986;6.990;2023-10-09T01:09:11;19.85;;;9.10;;
68089;SDS011;54880;50.986;6.990;2023-10-09T01:11:40;23.98;;;9.02;;
68089;SDS011;54880;50.986;6.990;2023-10-09T01:14:13;23.20;;;9.35;;
68089;SDS011;54880;50.986;6.990;2023-10-09T01:16:39;21.83;;;8.83;;
68089;SDS011;54880;50.986;6.990;2023-10-09T01:19:07;16.30;;;8.18;;
68089;SDS011;54880;50.986;6.990;2023-10-09T01:21:38;21.65;;;8.82;;
68089;SDS011;54880;50.986;6.990;2023-10-09T01:24:05;19.87;;;8.30;;
68089;SDS011;54880;50.986;6.990;2023-10-09T01:26:40;18.45;;;8.30;;
68089;SDS011;54880;50.986;6.990;2023-10-09T01:29:12;19.92;;;9.20;;
68089;SDS011;54880;50.986;6.990;2023-10-09T01:31:41;22.73;;;8.73;;
68089;SDS011;54880;50.986;6.990;2023-10-09T01:34:20;18.73;;;8.50;;
68089;SDS011;54880;50.986;6.990;2023-10-09T01:36:53;18.60;;;8.53;;
68089;SDS011;54880;50.986;6.990;2023-10-09T01:39:25;20.08;;;8.57;;
68089;SDS011;54880;50.986;6.990;2023-10-09T01:41:55;20.85;;;8.63;;
68089;SDS011;54880;50.986;6.990;2023-10-09T01:44:27;17.50;;;8.02;;
68089;SDS011;54880;50.986;6.990;2023-10-09T01:46:55;22.17;;;8.07;;
68089;SDS011;54880;50.986;6.990;2023-10-09T01:49:22;19.83;;;8.20;;
68089;SDS011;54880;50.986;6.990;2023-10-09T01:51:57;19.30;;;8.35;;
68089;SDS011;54880;50.986;6.990;2023-10-09T01:54:35;20.75;;;8.18;;
68089;SDS011;54880;50.986;6.990;2023-10-09T01:57:07;16.02;;;7.43;;
68089;SDS011;54880;50.986;6.990;2023-10-09T01:59:41;18.27;;;7.75;;
68089;SDS011;54880;50.986;6.990;2023-10-09T02:02:12;19.90;;;8.17;;
68089;SDS011;54880;50.986;6.990;2023-10-09T02:04:49;18.52;;;7.68;;
68089;SDS011;54880;50.986;6.990;2023-10-09T02:07:15;18.38;;;7.53;;
68089;SDS011;54880;50.986;6.990;2023-10-09T02:09:47;21.77;;;7.95;;
68089;SDS011;54880;50.986;6.990;2023-10-09T02:12:12;14.83;;;7.23;;
68089;SDS011;54880;50.986;6.990;2023-10-09T02:14:38;19.17;;;7.17;;
68089;SDS011;54880;50.986;6.990;2023-10-09T02:17:06;18.80;;;7.85;;
68089;SDS011;54880;50.986;6.990;2023-10-09T02:19:35;19.77;;;8.50;;
68089;SDS011;54880;50.986;6.990;2023-10-09T02:22:01;17.00;;;7.40;;
68089;SDS011;54880;50.986;6.990;2023-10-09T02:24:43;20.40;;;8.57;;
68089;SDS011;54880;50.986;6.990;2023-10-09T02:27:15;17.27;;;7.68;;
68089;SDS011;54880;50.986;6.990;2023-10-09T02:30:00;20.00;;;7.97;;
68089;SDS011;54880;50.986;6.990;2023-10-09T02:32:34;16.05;;;6.68;;
68089;SDS011;54880;50.986;6.990;2023-10-09T02:35:00;18.20;;;8.07;;
68089;SDS011;54880;50.986;6.990;2023-10-09T02:37:34;18.00;;;7.75;;
68089;SDS011;54880;50.986;6.990;2023-10-09T02:40:03;19.73;;;8.70;;
68089;SDS011;54880;50.986;6.990;2023-10-09T02:42:33;19.48;;;8.30;;
68089;SDS011;54880;50.986;6.990;2023-10-09T02:44:58;21.03;;;8.77;;
68089;SDS011;54880;50.986;6.990;2023-10-09T02:47:25;17.60;;;8.13;;
68089;SDS011;54880;50.986;6.990;2023-10-09T02:49:54;15.88;;;7.30;;
68089;SDS011;54880;50.986;6.990;2023-10-09T02:52:25;18.08;;;7.20;;
68089;SDS011;54880;50.986;6.990;2023-10-09T02:54:57;17.40;;;7.85;;
68089;SDS011;54880;50.986;6.990;2023-10-09T02:57:26;17.48;;;7.40;;
68089;SDS011;54880;50.986;6.990;2023-10-09T02:59:53;17.77;;;6.87;;
68089;SDS011;54880;50.986;6.990;2023-10-09T03:02:19;15.50;;;7.35;;
68089;SDS011;54880;50.986;6.990;2023-10-09T03:04:44;17.20;;;6.73;;
68089;SDS011;54880;50.986;6.990;2023-10-09T03:07:09;21.93;;;7.63;;
68089;SDS011;54880;50.986;6.990;2023-10-09T03:09:35;15.73;;;7.55;;
68089;SDS011;54880;50.986;6.990;2023-10-09T03:12:01;19.87;;;7.37;;
68089;SDS011;54880;50.986;6.990;2023-10-09T03:14:31;16.35;;;7.82;;
68089;SDS011;54880;50.986;6.990;2023-10-09T03:16:57;17.57;;;7.43;;
68089;SDS011;54880;50.986;6.990;2023-10-09T03:19:26;18.05;;;7.13;;
68089;SDS011;54880;50.986;6.990;2023-10-09T03:21:52;17.42;;;7.07;;
68089;SDS011;54880;50.986;6.990;2023-10-09T03:24:17;15.80;;;6.63;;
68089;SDS011;54880;50.986;6.990;2023-10-09T03:26:43;17.02;;;7.40;;
68089;SDS011;54880;50.986;6.990;2023-10-09T03:29:11;16.03;;;6.97;;
68089;SDS011;54880;50.986;6.990;2023-10-09T03:31:36;16.67;;;6.97;;
68089;SDS011;54880;50.986;6.990;2023-10-09T03:34:03;16.05;;;7.40;;
68089;SDS011;54880;50.986;6.990;2023-10-09T03:36:28;14.20;;;6.83;;
68089;SDS011;54880;50.986;6.990;2023-10-09T03:38:55;16.85;;;6.53;;
68089;SDS011;54880;50.986;6.990;2023-10-09T03:41:26;16.52;;;7.65;;
68089;SDS011;54880;50.986;6.990;2023-10-09T03:43:52;18.08;;;6.72;;
68089;SDS011;54880;50.986;6.990;2023-10-09T03:46:19;17.88;;;7.40;;
68089;SDS011;54880;50.986;6.990;2023-10-09T03:48:51;16.00;;;6.40;;
68089;SDS011;54880;50.986;6.990;2023-10-09T03:51:17;15.35;;;7.00;;
68089;SDS011;54880;50.986;6.990;2023-10-09T03:53:49;14.43;;;7.43;;
68089;SDS011;54880;50.986;6.990;2023-10-09T03:56:15;16.15;;;7.25;;
68089;SDS011;54880;50.986;6.990;2023-10-09T03:58:45;18.83;;;6.27;;
68089;SDS011;54880;50.986;6.990;2023-10-09T04:01:11;16.08;;;7.18;;
68089;SDS011;54880;50.986;6.990;2023-10-09T04:03:43;17.40;;;7.57;;
68089;SDS011;54880;50.986;6.990;2023-10-09T04:06:08;15.00;;;7.63;;
68089;SDS011;54880;50.986;6.990;2023-10-09T04:08:36;15.35;;;7.35;;
68089;SDS011;54880;50.986;6.990;2023-10-09T04:11:04;21.27;;;7.43;;
68089;SDS011;54880;50.986;6.990;2023-10-09T04:13:38;15.35;;;7.20;;
68089;SDS011;54880;50.986;6.990;2023-10-09T04:16:05;15.15;;;6.60;;
68089;SDS011;54880;50.986;6.990;2023-10-09T04:18:53;16.15;;;7.38;;
68089;SDS011;54880;50.986;6.990;2023-10-09T04:21:21;18.70;;;7.30;;
68089;SDS011;54880;50.986;6.990;2023-10-09T04:24:07;18.83;;;7.30;;
68089;SDS011;54880;50.986;6.990;2023-10-09T04:26:41;15.68;;;6.72;;
68089;SDS011;54880;50.986;6.990;2023-10-09T04:29:10;15.32;;;6.80;;
68089;SDS011;54880;50.986;6.990;2023-10-09T04:31:38;16.10;;;6.60;;
68089;SDS011;54880;50.986;6.990;2023-10-09T04:34:04;15.47;;;6.87;;
68089;SDS011;54880;50.986;6.990;2023-10-09T04:36:48;17.38;;;7.00;;
68089;SDS011;54880;50.986;6.990;2023-10-09T04:39:21;16.73;;;7.33;;
68089;SDS011;54880;50.986;6.990;2023-10-09T04:41:56;18.73;;;7.35;;
68089;SDS011;54880;50.986;6.990;2023-10-09T04:44:45;19.05;;;7.40;;
68089;SDS011;54880;50.986;6.990;2023-10-09T04:47:28;14.98;;;7.03;;
68089;SDS011;54880;50.986;6.990;2023-10-09T04:50:04;14.95;;;7.20;;
68089;SDS011;54880;50.986;6.990;2023-10-09T04:52:38;14.40;;;6.87;;
68089;SDS011;54880;50.986;6.990;2023-10-09T04:55:04;18.15;;;7.60;;
68089;SDS011;54880;50.986;6.990;2023-10-09T04:57:35;15.40;;;7.00;;
68089;SDS011;54880;50.986;6.990;2023-10-09T05:00:24;16.60;;;7.70;;
68089;SDS011;54880;50.986;6.990;2023-10-09T05:02:58;16.27;;;7.32;;
68089;SDS011;54880;50.986;6.990;2023-10-09T05:05:29;18.83;;;7.38;;
68089;SDS011;54880;50.986;6.990;2023-10-09T05:08:07;20.10;;;7.47;;
68089;SDS011;54880;50.986;6.990;2023-10-09T05:13:28;14.70;;;7.30;;
68089;SDS011;54880;50.986;6.990;2023-10-09T05:16:15;18.90;;;7.68;;
68089;SDS011;54880;50.986;6.990;2023-10-09T05:18:51;15.15;;;6.53;;
68089;SDS011;54880;50.986;6.990;2023-10-09T05:21:25;15.97;;;6.77;;
68089;SDS011;54880;50.986;6.990;2023-10-09T05:23:56;15.93;;;6.85;;
68089;SDS011;54880;50.986;6.990;2023-10-09T05:26:37;17.60;;;7.20;;
68089;SDS011;54880;50.986;6.990;2023-10-09T05:29:18;17.88;;;7.38;;
68089;SDS011;54880;50.986;6.990;2023-10-09T05:32:02;17.90;;;7.53;;
68089;SDS011;54880;50.986;6.990;2023-10-09T05:34:30;15.53;;;7.00;;
68089;SDS011;54880;50.986;6.990;2023-10-09T05:37:05;17.50;;;7.47;;
68089;SDS011;54880;50.986;6.990;2023-10-09T05:39:47;16.65;;;7.55;;
68089;SDS011;54880;50.986;6.990;2023-10-09T05:42:25;20.00;;;7.28;;
68089;SDS011;54880;50.986;6.990;2023-10-09T05:45:07;14.85;;;6.85;;
68089;SDS011;54880;50.986;6.990;2023-10-09T05:47:42;18.77;;;7.47;;
68089;SDS011;54880;50.986;6.990;2023-10-09T05:50:23;18.65;;;7.82;;
68089;SDS011;54880;50.986;6.990;2023-10-09T05:52:49;19.42;;;8.32;;
68089;SDS011;54880;50.986;6.990;2023-10-09T05:55:18;17.38;;;7.35;;
68089;SDS011;54880;50.986;6.990;2023-10-09T05:58:06;19.95;;;7.88;;
68089;SDS011;54880;50.986;6.990;2023-10-09T06:00:34;15.07;;;7.30;;
68089;SDS011;54880;50.986;6.990;2023-10-09T06:03:18;17.42;;;8.52;;
68089;SDS011;54880;50.986;6.990;2023-10-09T06:05:44;19.77;;;7.17;;
68089;SDS011;54880;50.986;6.990;2023-10-09T06:08:21;17.15;;;7.35;;
68089;SDS011;54880;50.986;6.990;2023-10-09T06:10:52;14.63;;;7.10;;
68089;SDS011;54880;50.986;6.990;2023-10-09T06:13:31;18.55;;;7.22;;
68089;SDS011;54880;50.986;6.990;2023-10-09T06:16:03;18.30;;;7.53;;
68089;SDS011;54880;50.986;6.990;2023-10-09T06:18:47;16.87;;;7.90;;
68089;SDS011;54880;50.986;6.990;2023-10-09T06:21:33;17.40;;;7.55;;
68089;SDS011;54880;50.986;6.990;2023-10-09T06:24:24;18.10;;;7.78;;
68089;SDS011;54880;50.986;6.990;2023-10-09T06:26:54;19.00;;;7.38;;
68089;SDS011;54880;50.986;6.990;2023-10-09T06:29:19;13.63;;;6.80;;
68089;SDS011;54880;50.986;6.990;2023-10-09T06:32:04;18.40;;;7.60;;
68089;SDS011;54880;50.986;6.990;2023-10-09T06:34:45;20.23;;;7.82;;
68089;SDS011;54880;50.986;6.990;2023-10-09T06:37:14;20.30;;;7.10;;
68089;SDS011;54880;50.986;6.990;2023-10-09T06:39:44;13.25;;;6.60;;
68089;SDS011;54880;50.986;6.990;2023-10-09T06:42:15;17.95;;;7.45;;
68089;SDS011;54880;50.986;6.990;2023-10-09T06:45:19;20.35;;;6.63;;
68089;SDS011;54880;50.986;6.990;2023-10-09T06:47:46;17.58;;;7.22;;
68089;SDS011;54880;50.986;6.990;2023-10-09T06:50:24;14.30;;;6.00;;
68089;SDS011;54880;50.986;6.990;2023-10-09T06:52:49;14.85;;;6.38;;
68089;SDS011;54880;50.986;6.990;2023-10-09T06:55:36;16.08;;;6.93;;
68089;SDS011;54880;50.986;6.990;2023-10-09T06:58:14;16.85;;;6.32;;
68089;SDS011;54880;50.986;6.990;2023-10-09T07:00:47;15.15;;;6.72;;
68089;SDS011;54880;50.986;6.990;2023-10-09T07:03:31;19.73;;;6.33;;
68089;SDS011;54880;50.986;6.990;2023-10-09T07:06:06;18.67;;;6.68;;
68089;SDS011;54880;50.986;6.990;2023-10-09T07:08:49;18.80;;;7.68;;
68089;SDS011;54880;50.986;6.990;2023-10-09T07:11:38;16.83;;;6.60;;
68089;SDS011;54880;50.986;6.990;2023-10-09T07:14:06;18.58;;;7.32;;
68089;SDS011;54880;50.986;6.990;2023-10-09T07:16:34;15.47;;;7.00;;
68089;SDS011;54880;50.986;6.990;2023-10-09T07:19:22;14.68;;;6.68;;
68089;SDS011;54880;50.986;6.990;2023-10-09T07:22:02;14.23;;;6.50;;
68089;SDS011;54880;50.986;6.990;2023-10-09T07:24:41;18.08;;;6.25;;
68089;SDS011;54880;50.986;6.990;2023-10-09T07:27:12;18.15;;;7.15;;
68089;SDS011;54880;50.986;6.990;2023-10-09T07:29:39;18.27;;;6.90;;
68089;SDS011;54880;50.986;6.990;2023-10-09T07:32:17;17.45;;;6.97;;
68089;SDS011;54880;50.986;6.990;2023-10-09T07:34:49;18.27;;;6.90;;
68089;SDS011;54880;50.986;6.990;2023-10-09T07:37:26;13.65;;;6.53;;
68089;SDS011;54880;50.986;6.990;2023-10-09T07:39:55;17.42;;;6.53;;
68089;SDS011;54880;50.986;6.990;2023-10-09T07:42:24;15.27;;;6.38;;
68089;SDS011;54880;50.986;6.990;2023-10-09T07:45:08;14.57;;;6.53;;
68089;SDS011;54880;50.986;6.990;2023-10-09T07:47:57;16.00;;;7.40;;
68089;SDS011;54880;50.986;6.990;2023-10-09T07:50:25;15.68;;;7.00;;
68089;SDS011;54880;50.986;6.990;2023-10-09T07:52:59;15.02;;;6.50;;
68089;SDS011;54880;50.986;6.990;2023-10-09T07:55:40;15.80;;;6.68;;
68089;SDS011;54880;50.986;6.990;2023-10-09T07:58:11;16.65;;;6.78;;
68089;SDS011;54880;50.986;6.990;2023-10-09T08:00:37;16.47;;;7.00;;
68089;SDS011;54880;50.986;6.990;2023-10-09T08:03:14;16.85;;;7.30;;
68089;SDS011;54880;50.986;6.990;2023-10-09T08:05:49;15.88;;;6.90;;
68089;SDS011;54880;50.986;6.990;2023-10-09T08:08:14;17.60;;;6.70;;
68089;SDS011;54880;50.986;6.990;2023-10-09T08:11:07;18.63;;;7.05;;
68089;SDS011;54880;50.986;6.990;2023-10-09T08:14:01;16.02;;;6.55;;
68089;SDS011;54880;50.986;6.990;2023-10-09T08:16:27;18.67;;;7.30;;
68089;SDS011;54880;50.986;6.990;2023-10-09T08:19:02;18.50;;;7.07;;
68089;SDS011;54880;50.986;6.990;2023-10-09T08:21:46;17.70;;;7.57;;
68089;SDS011;54880;50.986;6.990;2023-10-09T08:24:31;16.45;;;6.57;;
68089;SDS011;54880;50.986;6.990;2023-10-09T08:27:09;17.17;;;6.60;;
68089;SDS011;54880;50.986;6.990;2023-10-09T08:30:13;16.95;;;6.13;;
68089;SDS011;54880;50.986;6.990;2023-10-09T08:32:48;14.97;;;6.07;;
68089;SDS011;54880;50.986;6.990;2023-10-09T08:35:30;14.35;;;5.93;;
68089;SDS011;54880;50.986;6.990;2023-10-09T08:38:01;13.98;;;6.00;;
68089;SDS011;54880;50.986;6.990;2023-10-09T08:40:39;14.77;;;6.60;;
68089;SDS011;54880;50.986;6.990;2023-10-09T08:43:15;14.48;;;5.70;;
68089;SDS011;54880;50.986;6.990;2023-10-09T08:46:02;15.23;;;6.07;;
68089;SDS011;54880;50.986;6.990;2023-10-09T08:48:27;17.25;;;5.78;;
68089;SDS011;54880;50.986;6.990;2023-10-09T08:50:53;14.13;;;5.80;;
68089;SDS011;54880;50.986;6.990;2023-10-09T08:53:22;16.08;;;6.07;;
68089;SDS011;54880;50.986;6.990;2023-10-09T08:55:48;14.70;;;5.88;;
68089;SDS011;54880;50.986;6.990;2023-10-09T08:58:14;20.10;;;5.73;;
68089;SDS011;54880;50.986;6.990;2023-10-09T09:00:48;13.00;;;6.07;;
68089;SDS011;54880;50.986;6.990;2023-10-09T09:03:17;15.02;;;6.03;;
68089;SDS011;54880;50.986;6.990;2023-10-09T09:05:46;14.48;;;6.15;;
68089;SDS011;54880;50.986;6.990;2023-10-09T09:08:23;14.48;;;5.55;;
68089;SDS011;54880;50.986;6.990;2023-10-09T09:10:59;11.70;;;5.18;;
68089;SDS011;54880;50.986;6.990;2023-10-09T09:13:36;14.40;;;5.67;;
68089;SDS011;54880;50.986;6.990;2023-10-09T09:16:02;15.10;;;5.70;;
68089;SDS011;54880;50.986;6.990;2023-10-09T09:18:27;15.30;;;5.60;;
68089;SDS011;54880;50.986;6.990;2023-10-09T09:20:57;11.57;;;5.10;;
68089;SDS011;54880;50.986;6.990;2023-10-09T09:23:22;15.38;;;5.43;;
68089;SDS011;54880;50.986;6.990;2023-10-09T09:25:49;12.93;;;5.65;;
68089;SDS011;54880;50.986;6.990;2023-10-09T09:28:23;12.93;;;5.87;;
68089;SDS011;54880;50.986;6.990;2023-10-09T09:30:52;16.65;;;6.00;;
68089;SDS011;54880;50.986;6.990;2023-10-09T09:35:59;13.23;;;5.30;;
68089;SDS011;54880;50.986;6.990;2023-10-09T09:38:28;15.15;;;5.60;;
68089;SDS011;54880;50.986;6.990;2023-10-09T09:40:56;16.93;;;5.93;;
68089;SDS011;54880;50.986;6.990;2023-10-09T09:43:22;14.82;;;5.68;;
68089;SDS011;54880;50.986;6.990;2023-10-09T09:45:47;18.45;;;5.63;;
68089;SDS011;54880;50.986;6.990;2023-10-09T09:48:14;14.73;;;5.85;;
68089;SDS011;54880;50.986;6.990;2023-10-09T09:50:41;16.83;;;5.53;;
68089;SDS011;54880;50.986;6.990;2023-10-09T09:53:13;14.95;;;5.50;;
68089;SDS011;54880;50.986;6.990;2023-10-09T09:55:44;15.95;;;5.40;;
68089;SDS011;54880;50.986;6.990;2023-10-09T09:58:17;19.50;;;5.63;;
68089;SDS011;54880;50.986;6.990;2023-10-09T10:00:45;17.27;;;5.85;;
68089;SDS011;54880;50.986;6.990;2023-10-09T10:03:12;15.73;;;5.20;;
68089;SDS011;54880;50.986;6.990;2023-10-09T10:05:38;13.27;;;4.82;;
68089;SDS011;54880;50.986;6.990;2023-10-09T10:08:05;14.68;;;5.50;;
68089;SDS011;54880;50.986;6.990;2023-10-09T10:10:37;14.63;;;5.38;;
68089;SDS011;54880;50.986;6.990;2023-10-09T10:13:04;14.13;;;4.70;;
68089;SDS011;54880;50.986;6.990;2023-10-09T10:18:13;14.10;;;4.50;;
68089;SDS011;54880;50.986;6.990;2023-10-09T10:23:28;13.07;;;4.63;;
68089;SDS011;54880;50.986;6.990;2023-10-09T10:26:04;11.25;;;4.20;;
68089;SDS011;54880;50.986;6.990;2023-10-09T10:28:40;15.02;;;4.65;;
68089;SDS011;54880;50.986;6.990;2023-10-09T10:31:07;13.75;;;4.60;;
68089;SDS011;54880;50.986;6.990;2023-10-09T10:36:19;12.40;;;4.43;;
68089;SDS011;54880;50.986;6.990;2023-10-09T10:39:25;11.23;;;3.85;;
68089;SDS011;54880;50.986;6.990;2023-10-09T10:41:53;12.50;;;4.13;;
68089;SDS011;54880;50.986;6.990;2023-10-09T10:44:28;15.13;;;4.68;;
68089;SDS011;54880;50.986;6.990;2023-10-09T10:47:03;13.32;;;4.07;;
68089;SDS011;54880;50.986;6.990;2023-10-09T10:49:29;10.70;;;4.00;;
68089;SDS011;54880;50.986;6.990;2023-10-09T10:52:02;12.13;;;4.82;;
68089;SDS011;54880;50.986;6.990;2023-10-09T10:54:40;11.10;;;4.20;;
68089;SDS011;54880;50.986;6.990;2023-10-09T10:57:15;15.00;;;4.20;;
68089;SDS011;54880;50.986;6.990;2023-10-09T10:59:53;10.93;;;3.67;;
68089;SDS011;54880;50.986;6.990;2023-10-09T11:02:29;13.55;;;5.43;;
68089;SDS011;54880;50.986;6.990;2023-10-09T11:04:56;13.10;;;4.67;;
68089;SDS011;54880;50.986;6.990;2023-10-09T11:07:39;10.07;;;3.92;;
68089;SDS011;54880;50.986;6.990;2023-10-09T11:10:06;10.90;;;3.60;;
68089;SDS011;54880;50.986;6.990;2023-10-09T11:12:32;18.37;;;4.17;;
68089;SDS011;54880;50.986;6.990;2023-10-09T11:15:11;11.93;;;3.95;;
68089;SDS011;54880;50.986;6.990;2023-10-09T11:17:58;10.65;;;3.70;;
68089;SDS011;54880;50.986;6.990;2023-10-09T11:20:24;12.57;;;4.25;;
68089;SDS011;54880;50.986;6.990;2023-10-09T11:22:52;11.55;;;3.83;;
68089;SDS011;54880;50.986;6.990;2023-10-09T11:25:35;11.33;;;3.73;;
68089;SDS011;54880;50.986;6.990;2023-10-09T11:28:03;12.77;;;3.67;;
68089;SDS011;54880;50.986;6.990;2023-10-09T11:30:48;12.60;;;4.38;;
68089;SDS011;54880;50.986;6.990;2023-10-09T11:33:20;11.45;;;3.75;;
68089;SDS011;54880;50.986;6.990;2023-10-09T11:35:56;11.55;;;3.60;;
68089;SDS011;54880;50.986;6.990;2023-10-09T11:38:23;11.83;;;3.93;;
68089;SDS011;54880;50.986;6.990;2023-10-09T11:40:50;12.98;;;4.55;;
68089;SDS011;54880;50.986;6.990;2023-10-09T11:43:18;10.65;;;4.25;;
68089;SDS011;54880;50.986;6.990;2023-10-09T11:45:48;9.20;;;4.10;;
68089;SDS011;54880;50.986;6.990;2023-10-09T11:48:20;9.70;;;4.30;;
68089;SDS011;54880;50.986;6.990;2023-10-09T11:51:12;10.60;;;4.17;;
68089;SDS011;54880;50.986;6.990;2023-10-09T11:53:46;12.93;;;3.85;;
68089;SDS011;54880;50.986;6.990;2023-10-09T11:56:15;9.77;;;3.97;;
68089;SDS011;54880;50.986;6.990;2023-10-09T11:58:48;14.77;;;3.90;;
68089;SDS011;54880;50.986;6.990;2023-10-09T12:01:15;11.52;;;4.20;;
68089;SDS011;54880;50.986;6.990;2023-10-09T12:03:45;11.53;;;4.00;;
68089;SDS011;54880;50.986;6.990;2023-10-09T12:06:15;11.10;;;4.22;;
68089;SDS011;54880;50.986;6.990;2023-10-09T12:08:44;19.38;;;4.80;;
68089;SDS011;54880;50.986;6.990;2023-10-09T12:11:11;14.23;;;4.75;;
68089;SDS011;54880;50.986;6.990;2023-10-09T12:13:38;13.77;;;4.97;;
68089;SDS011;54880;50.986;6.990;2023-10-09T12:16:03;13.27;;;4.57;;
68089;SDS011;54880;50.986;6.990;2023-10-09T12:18:33;13.30;;;5.05;;
68089;SDS011;54880;50.986;6.990;2023-10-09T12:21:00;13.27;;;5.45;;
68089;SDS011;54880;50.986;6.990;2023-10-09T12:23:28;15.07;;;5.33;;
68089;SDS011;54880;50.986;6.990;2023-10-09T12:25:53;11.98;;;4.00;;
68089;SDS011;54880;50.986;6.990;2023-10-09T12:28:22;15.30;;;5.32;;
68089;SDS011;54880;50.986;6.990;2023-10-09T12:30:47;13.97;;;4.37;;
68089;SDS011;54880;50.986;6.990;2023-10-09T12:33:18;9.93;;;4.47;;
68089;SDS011;54880;50.986;6.990;2023-10-09T12:35:53;15.05;;;5.43;;
68089;SDS011;54880;50.986;6.990;2023-10-09T12:38:18;13.65;;;5.38;;
68089;SDS011;54880;50.986;6.990;2023-10-09T12:40:47;12.17;;;4.63;;
68089;SDS011;54880;50.986;6.990;2023-10-09T12:43:17;11.35;;;4.60;;
68089;SDS011;54880;50.986;6.990;2023-10-09T12:45:44;13.55;;;5.72;;
68089;SDS011;54880;50.986;6.990;2023-10-09T12:48:10;14.53;;;5.37;;
68089;SDS011;54880;50.986;6.990;2023-10-09T12:50:35;17.23;;;4.70;;
68089;SDS011;54880;50.986;6.990;2023-10-09T12:53:07;20.15;;;5.10;;
68089;SDS011;54880;50.986;6.990;2023-10-09T12:55:36;15.90;;;4.97;;
68089;SDS011;54880;50.986;6.990;2023-10-09T12:58:05;14.20;;;5.10;;
68089;SDS011;54880;50.986;6.990;2023-10-09T13:00:37;14.67;;;4.77;;
68089;SDS011;54880;50.986;6.990;2023-10-09T13:03:04;11.73;;;4.43;;
68089;SDS011;54880;50.986;6.990;2023-10-09T13:05:39;14.23;;;4.95;;
68089;SDS011;54880;50.986;6.990;2023-10-09T13:08:17;12.73;;;4.30;;
68089;SDS011;54880;50.986;6.990;2023-10-09T13:10:45;14.65;;;4.80;;
68089;SDS011;54880;50.986;6.990;2023-10-09T13:13:10;12.00;;;4.60;;
68089;SDS011;54880;50.986;6.990;2023-10-09T13:15:36;14.63;;;4.53;;
68089;SDS011;54880;50.986;6.990;2023-10-09T13:18:07;13.48;;;4.55;;
68089;SDS011;54880;50.986;6.990;2023-10-09T13:20:33;14.13;;;5.03;;
68089;SDS011;54880;50.986;6.990;2023-10-09T13:23:00;11.27;;;4.95;;
68089;SDS011;54880;50.986;6.990;2023-10-09T13:25:26;12.98;;;5.32;;
68089;SDS011;54880;50.986;6.990;2023-10-09T13:27:57;15.63;;;5.32;;
68089;SDS011;54880;50.986;6.990;2023-10-09T13:30:22;12.07;;;4.40;;
68089;SDS011;54880;50.986;6.990;2023-10-09T13:32:51;11.27;;;4.73;;
68089;SDS011;54880;50.986;6.990;2023-10-09T13:35:17;23.55;;;6.50;;
68089;SDS011;54880;50.986;6.990;2023-10-09T13:37:43;13.80;;;4.93;;
68089;SDS011;54880;50.986;6.990;2023-10-09T13:40:09;15.18;;;5.97;;
68089;SDS011;54880;50.986;6.990;2023-10-09T13:42:36;14.57;;;5.27;;
68089;SDS011;54880;50.986;6.990;2023-10-09T13:45:02;15.77;;;5.10;;
68089;SDS011;54880;50.986;6.990;2023-10-09T13:47:32;13.20;;;5.80;;
68089;SDS011;54880;50.986;6.990;2023-10-09T13:49:57;13.00;;;5.85;;
68089;SDS011;54880;50.986;6.990;2023-10-09T13:52:24;14.43;;;5.97;;
68089;SDS011;54880;50.986;6.990;2023-10-09T13:54:49;15.38;;;4.88;;
68089;SDS011;54880;50.986;6.990;2023-10-09T13:57:15;22.73;;;6.63;;
68089;SDS011;54880;50.986;6.990;2023-10-09T13:59:41;15.73;;;5.73;;
68089;SDS011;54880;50.986;6.990;2023-10-09T14:02:15;15.52;;;5.82;;
68089;SDS011;54880;50.986;6.990;2023-10-09T14:04:46;15.27;;;5.70;;
68089;SDS011;54880;50.986;6.990;2023-10-09T14:07:12;14.03;;;5.87;;
68089;SDS011;54880;50.986;6.990;2023-10-09T14:09:41;12.98;;;5.65;;
68089;SDS011;54880;50.986;6.990;2023-10-09T14:12:09;14.77;;;6.35;;
68089;SDS011;54880;50.986;6.990;2023-10-09T14:14:42;16.02;;;6.13;;
68089;SDS011;54880;50.986;6.990;2023-10-09T14:17:17;15.43;;;6.00;;
68089;SDS011;54880;50.986;6.990;2023-10-09T14:19:56;18.17;;;6.18;;
68089;SDS011;54880;50.986;6.990;2023-10-09T14:22:42;11.43;;;5.50;;
68089;SDS011;54880;50.986;6.990;2023-10-09T14:25:07;12.67;;;5.00;;
68089;SDS011;54880;50.986;6.990;2023-10-09T14:27:40;13.90;;;5.18;;
68089;SDS011;54880;50.986;6.990;2023-10-09T14:30:06;13.80;;;5.38;;
68089;SDS011;54880;50.986;6.990;2023-10-09T14:32:37;10.90;;;5.28;;
68089;SDS011;54880;50.986;6.990;2023-10-09T14:35:09;13.55;;;5.30;;
68089;SDS011;54880;50.986;6.990;2023-10-09T14:37:38;15.25;;;5.65;;
68089;SDS011;54880;50.986;6.990;2023-10-09T14:40:05;15.43;;;5.47;;
68089;SDS011;54880;50.986;6.990;2023-10-09T14:42:37;13.33;;;5.17;;
68089;SDS011;54880;50.986;6.990;2023-10-09T14:45:02;16.88;;;5.90;;
68089;SDS011;54880;50.986;6.990;2023-10-09T14:47:33;12.55;;;5.55;;
68089;SDS011;54880;50.986;6.990;2023-10-09T14:49:58;13.97;;;5.67;;
68089;SDS011;54880;50.986;6.990;2023-10-09T14:52:26;18.38;;;6.55;;
68089;SDS011;54880;50.986;6.990;2023-10-09T14:54:52;17.23;;;5.85;;
68089;SDS011;54880;50.986;6.990;2023-10-09T14:57:18;12.70;;;5.03;;
68089;SDS011;54880;50.986;6.990;2023-10-09T14:59:43;12.43;;;5.77;;
68089;SDS011;54880;50.986;6.990;2023-10-09T15:02:08;14.03;;;5.60;;
68089;SDS011;54880;50.986;6.990;2023-10-09T15:04:34;13.90;;;5.23;;
68089;SDS011;54880;50.986;6.990;2023-10-09T15:07:03;12.57;;;5.18;;
68089;SDS011;54880;50.986;6.990;2023-10-09T15:09:31;12.27;;;5.70;;
68089;SDS011;54880;50.986;6.990;2023-10-09T15:11:59;12.68;;;5.38;;
68089;SDS011;54880;50.986;6.990;2023-10-09T15:14:25;15.23;;;5.53;;